Time;durP1;ratioP1;P1;durP2;ratioP2;P2;SDS_P1;SDS_P2;PMS_P1;PMS_P2;Temp;Humidity;BMP_temperature;BMP_pressure;BME280_temperature;BME280_humidity;BME280_pressure;Samples;Min_cycle;Max_cycle;Signal;HPM_P1;HPM_P2
2024/02/10 00:01:44;;;;;;;3.20;1.00;;;9.90;99.90;;;;;;4897740;29;20073;-78
2024/02/10 00:04:13;;;;;;;4.28;1.52;;;9.90;99.90;;;;;;4899016;29;20049;-78
2024/02/10 00:06:41;;;;;;;2.78;1.30;;;10.00;99.90;;;;;;4897750;29;20045;-78
2024/02/10 00:09:08;;;;;;;4.00;1.58;;;10.00;99.90;;;;;;4897444;29;20520;-78
2024/02/10 00:11:36;;;;;;;3.05;1.13;;;10.00;99.90;;;;;;4882005;29;20174;-78
2024/02/10 00:14:03;;;;;;;3.67;1.10;;;10.00;99.90;;;;;;4878152;29;20052;-78
2024/02/10 00:16:33;;;;;;;3.88;1.05;;;10.00;99.90;;;;;;4866146;29;20053;-78
2024/02/10 00:19:08;;;;;;;1.63;0.70;;;10.00;99.90;;;;;;4880852;29;20044;-78
2024/02/10 00:21:36;;;;;;;3.10;1.15;;;10.00;99.90;;;;;;4897354;29;20052;-78
2024/02/10 00:24:04;;;;;;;2.17;0.77;;;10.00;99.90;;;;;;4897502;29;20124;-78
2024/02/10 00:26:32;;;;;;;2.00;0.80;;;10.00;99.90;;;;;;4897347;29;20098;-78
2024/02/10 00:28:59;;;;;;;2.05;1.00;;;10.00;99.90;;;;;;4882011;29;20405;-78
2024/02/10 00:31:28;;;;;;;5.25;1.10;;;10.00;99.90;;;;;;4882128;29;20060;-78
2024/02/10 00:33:56;;;;;;;2.42;0.93;;;10.00;99.90;;;;;;4881988;29;20147;-77
2024/02/10 00:36:24;;;;;;;1.63;0.80;;;10.00;99.90;;;;;;4897100;29;20048;-78
2024/02/10 00:38:51;;;;;;;2.13;0.88;;;10.00;99.90;;;;;;4897076;29;20044;-77
2024/02/10 00:41:19;;;;;;;3.10;0.80;;;10.00;99.90;;;;;;4866019;29;20045;-78
2024/02/10 00:43:47;;;;;;;1.48;0.60;;;10.00;99.90;;;;;;4878636;29;20048;-77
2024/02/10 00:46:15;;;;;;;2.10;0.93;;;10.00;99.90;;;;;;4873103;29;20048;-78
2024/02/10 00:48:48;;;;;;;5.00;1.23;;;10.00;99.90;;;;;;4881516;29;20497;-78
2024/02/10 00:51:15;;;;;;;;;;;10.00;99.90;;;;;;4898624;29;20048;-78
2024/02/10 00:53:42;;;;;;;2.35;0.70;;;10.00;99.90;;;;;;4896831;29;20014;-78
2024/02/10 00:56:10;;;;;;;2.55;0.68;;;9.90;99.90;;;;;;4881096;29;20064;-77
2024/02/10 00:58:40;;;;;;;2.53;1.17;;;10.00;99.90;;;;;;4881156;29;20064;-78
2024/02/10 01:01:20;;;;;;;3.25;0.60;;;9.90;99.90;;;;;;4896503;29;20044;-78
2024/02/10 01:03:48;;;;;;;2.17;0.82;;;10.00;99.90;;;;;;4896410;29;20048;-78
2024/02/10 01:06:17;;;;;;;2.30;0.90;;;10.00;99.90;;;;;;4881048;29;20049;-78
2024/02/10 01:08:46;;;;;;;2.22;0.63;;;10.00;99.90;;;;;;4881093;29;20048;-77
2024/02/10 01:11:14;;;;;;;1.45;0.70;;;10.10;99.90;;;;;;4881493;29;20112;-78
2024/02/10 01:13:43;;;;;;;3.75;1.73;;;10.10;99.90;;;;;;4897707;29;20052;-77
2024/02/10 01:16:17;;;;;;;4.93;1.70;;;10.10;99.90;;;;;;4896372;29;20043;-77
2024/02/10 01:18:48;;;;;;;2.65;1.00;;;10.10;99.90;;;;;;4881881;29;20435;-77
2024/02/10 01:21:17;;;;;;;1.67;0.90;;;10.10;99.90;;;;;;4896566;29;20143;-78
2024/02/10 01:23:49;;;;;;;2.55;0.70;;;10.20;99.90;;;;;;4881659;29;20091;-77
2024/02/10 01:26:17;;;;;;;3.83;0.73;;;10.20;99.90;;;;;;4896553;29;20056;-78
2024/02/10 01:28:46;;;;;;;2.78;1.02;;;10.20;99.90;;;;;;4866232;29;20060;-78
2024/02/10 01:31:17;;;;;;;2.70;0.93;;;10.20;99.90;;;;;;4884674;29;20060;-78
2024/02/10 01:33:44;;;;;;;3.03;0.80;;;10.10;99.90;;;;;;4869703;29;20083;-78
2024/02/10 01:36:12;;;;;;;2.28;0.80;;;10.10;99.90;;;;;;4885041;29;20052;-78
2024/02/10 01:38:46;;;;;;;2.50;0.65;;;10.10;99.90;;;;;;4869439;29;20041;-78
2024/02/10 01:41:14;;;;;;;1.77;0.70;;;10.10;99.90;;;;;;4892291;29;20055;-78
2024/02/10 01:43:43;;;;;;;2.22;0.93;;;10.00;99.90;;;;;;4900399;29;20099;-78
2024/02/10 01:46:15;;;;;;;1.92;0.77;;;10.00;99.90;;;;;;4884705;29;20083;-78
2024/02/10 01:48:43;;;;;;;2.30;0.70;;;10.00;99.90;;;;;;4884401;29;20139;-77
2024/02/10 01:51:11;;;;;;;1.95;0.80;;;10.00;99.90;;;;;;4900269;29;20138;-78
2024/02/10 01:53:39;;;;;;;1.50;0.40;;;10.00;99.90;;;;;;4884704;29;20069;-77
2024/02/10 01:56:11;;;;;;;0.80;0.47;;;9.90;99.90;;;;;;4900237;29;20140;-78
2024/02/10 01:58:40;;;;;;;1.42;0.60;;;9.90;99.90;;;;;;4884606;29;20076;-78
2024/02/10 02:01:10;;;;;;;1.27;0.52;;;9.90;99.90;;;;;;4884486;29;20048;-78
2024/02/10 02:03:42;;;;;;;1.08;0.52;;;9.80;99.90;;;;;;4884507;29;20071;-78
2024/02/10 02:06:17;;;;;;;1.40;0.50;;;9.80;99.90;;;;;;4900323;29;20143;-78
2024/02/10 02:08:49;;;;;;;0.60;0.50;;;9.80;99.90;;;;;;4899918;29;20060;-78
2024/02/10 02:11:17;;;;;;;2.75;0.70;;;9.80;99.90;;;;;;4885134;29;20052;-84
2024/02/10 02:13:48;;;;;;;0.80;0.40;;;9.70;99.90;;;;;;4899911;29;20040;-83
2024/02/10 02:16:17;;;;;;;2.47;0.67;;;9.80;99.90;;;;;;4881163;29;20073;-83
2024/02/10 02:18:45;;;;;;;1.63;0.70;;;9.80;99.90;;;;;;4881535;29;20498;-83
2024/02/10 02:21:12;;;;;;;1.55;0.60;;;9.80;99.90;;;;;;4898698;29;20043;-83
2024/02/10 02:23:40;;;;;;;1.73;0.65;;;9.80;99.90;;;;;;4884203;29;20143;-82
2024/02/10 02:26:07;;;;;;;2.35;0.75;;;9.80;99.90;;;;;;4899652;29;20056;-83
2024/02/10 02:28:34;;;;;;;1.65;0.70;;;9.80;99.90;;;;;;4884223;29;20497;-82
2024/02/10 02:31:03;;;;;;;1.95;0.70;;;9.80;99.90;;;;;;4884376;29;20057;-83
2024/02/10 02:33:32;;;;;;;1.40;0.60;;;9.90;99.90;;;;;;4899237;29;20516;-83
2024/02/10 02:35:59;;;;;;;1.55;0.70;;;9.90;99.90;;;;;;4883830;29;20520;-83
2024/02/10 02:38:26;;;;;;;1.35;0.55;;;9.90;99.90;;;;;;4883114;29;20111;-82
2024/02/10 02:40:53;;;;;;;1.17;0.50;;;9.80;99.90;;;;;;4867742;29;20509;-83
2024/02/10 02:43:20;;;;;;;1.70;0.70;;;9.80;99.90;;;;;;4883790;29;20049;-84
2024/02/10 02:45:48;;;;;;;1.35;0.60;;;9.80;99.90;;;;;;4899090;29;20052;-83
2024/02/10 02:48:15;;;;;;;1.35;0.40;;;9.70;99.90;;;;;;4880778;29;20045;-83
2024/02/10 02:50:46;;;;;;;1.50;0.60;;;9.70;99.90;;;;;;4883553;29;20417;-83
2024/02/10 02:53:15;;;;;;;0.95;0.50;;;9.70;99.90;;;;;;4881748;29;20057;-83
2024/02/10 02:55:45;;;;;;;1.98;0.60;;;9.70;99.90;;;;;;4899020;29;20041;-83
2024/02/10 02:58:13;;;;;;;1.33;0.50;;;9.70;99.90;;;;;;4881036;29;20049;-83
2024/02/10 03:00:40;;;;;;;1.63;0.60;;;9.70;99.90;;;;;;4896934;29;20092;-83
2024/02/10 03:03:07;;;;;;;1.85;0.68;;;9.70;99.90;;;;;;4864866;29;20056;-83
2024/02/10 03:05:35;;;;;;;1.95;0.70;;;9.70;99.90;;;;;;4880581;29;20100;-83
2024/02/10 03:08:02;;;;;;;1.35;0.60;;;9.80;99.90;;;;;;4883307;29;20628;-83
2024/02/10 03:10:30;;;;;;;2.03;0.80;;;9.80;99.90;;;;;;4881020;29;20041;-83
2024/02/10 03:12:57;;;;;;;2.15;1.02;;;9.80;99.90;;;;;;4874258;29;20521;-82
2024/02/10 03:15:25;;;;;;;2.17;0.70;;;9.90;99.90;;;;;;4873871;29;20096;-78
2024/02/10 03:17:53;;;;;;;1.70;0.80;;;9.90;99.90;;;;;;4899325;29;20040;-78
2024/02/10 03:20:23;;;;;;;2.05;0.70;;;9.90;99.90;;;;;;4864593;29;20077;-78
2024/02/10 03:23:01;;;;;;;2.47;0.88;;;10.00;99.90;;;;;;4867126;29;20055;-78
2024/02/10 03:25:29;;;;;;;2.28;0.80;;;10.00;99.90;;;;;;4881164;29;20053;-78
2024/02/10 03:27:57;;;;;;;1.50;0.70;;;10.00;99.90;;;;;;4896992;29;20059;-78
2024/02/10 03:30:24;;;;;;;1.67;0.80;;;10.00;99.90;;;;;;4883006;29;20048;-78
2024/02/10 03:32:54;;;;;;;1.45;0.70;;;10.00;99.90;;;;;;4864155;29;20060;-78
2024/02/10 03:35:22;;;;;;;1.52;0.70;;;10.00;99.90;;;;;;4882426;29;20151;-78
2024/02/10 03:37:51;;;;;;;1.45;0.80;;;10.00;99.90;;;;;;4882942;29;20051;-78
2024/02/10 03:40:20;;;;;;;2.63;0.90;;;10.00;99.90;;;;;;4879441;29;20049;-78
2024/02/10 03:42:48;;;;;;;1.55;0.60;;;10.00;99.90;;;;;;4879588;29;20053;-78
2024/02/10 03:45:15;;;;;;;1.20;0.60;;;9.90;99.90;;;;;;4879776;29;20049;-78
2024/02/10 03:47:43;;;;;;;2.08;0.80;;;10.00;99.90;;;;;;4887980;29;20044;-78
2024/02/10 03:50:14;;;;;;;1.85;0.60;;;10.00;99.90;;;;;;4898043;29;20049;-78
2024/02/10 03:52:42;;;;;;;1.13;0.50;;;9.90;99.90;;;;;;4881895;29;20052;-78
2024/02/10 03:55:10;;;;;;;2.42;0.90;;;9.90;99.90;;;;;;4882416;29;20128;-78
2024/02/10 03:57:37;;;;;;;1.38;0.60;;;9.90;99.90;;;;;;4882420;29;20041;-78
2024/02/10 04:00:10;;;;;;;1.75;0.88;;;9.90;99.90;;;;;;4879417;29;20045;-78
2024/02/10 04:02:37;;;;;;;1.65;0.63;;;9.90;99.90;;;;;;4897622;29;20049;-78
2024/02/10 04:05:05;;;;;;;2.38;0.60;;;9.80;99.90;;;;;;4879017;29;20072;-78
2024/02/10 04:07:35;;;;;;;1.70;0.70;;;9.80;99.90;;;;;;4896254;29;20053;-78
2024/02/10 04:10:04;;;;;;;1.33;0.60;;;9.80;99.90;;;;;;4882398;29;20151;-78
2024/02/10 04:12:32;;;;;;;1.88;0.40;;;9.80;99.90;;;;;;4882433;29;20059;-78
2024/02/10 04:15:00;;;;;;;1.48;0.70;;;9.80;99.90;;;;;;4882661;29;20048;-78
2024/02/10 04:17:27;;;;;;;1.65;0.50;;;9.80;99.90;;;;;;4897495;29;20569;-77
2024/02/10 04:19:56;;;;;;;1.10;0.50;;;9.80;99.90;;;;;;4863392;29;20117;-78
2024/02/10 04:22:23;;;;;;;1.10;0.60;;;9.80;99.90;;;;;;4893376;29;20128;-78
2024/02/10 04:24:53;;;;;;;1.85;0.77;;;9.90;99.90;;;;;;4882379;29;20474;-78
2024/02/10 04:27:20;;;;;;;1.55;0.50;;;9.80;99.90;;;;;;4882400;29;20108;-77
2024/02/10 04:29:47;;;;;;;1.58;0.57;;;9.90;99.90;;;;;;4894348;29;20135;-77
2024/02/10 04:32:14;;;;;;;1.25;0.65;;;9.90;99.90;;;;;;4866560;29;20483;-77
2024/02/10 04:34:43;;;;;;;1.85;0.60;;;9.90;99.90;;;;;;4866481;29;20553;-77
2024/02/10 04:37:10;;;;;;;1.13;0.52;;;9.90;99.90;;;;;;4863509;29;20438;-82
2024/02/10 04:39:37;;;;;;;1.88;0.70;;;9.90;99.90;;;;;;4871605;29;20041;-83
2024/02/10 04:42:05;;;;;;;1.90;0.60;;;9.80;99.90;;;;;;4874568;29;20092;-83
2024/02/10 04:44:32;;;;;;;1.50;0.60;;;9.80;99.90;;;;;;4881797;29;20049;-82
2024/02/10 04:46:59;;;;;;;1.52;0.52;;;9.80;99.90;;;;;;4881166;29;20049;-82
2024/02/10 04:49:26;;;;;;;1.38;0.80;;;9.80;99.90;;;;;;4878371;29;20131;-82
2024/02/10 04:51:53;;;;;;;1.27;0.45;;;9.80;99.90;;;;;;4893998;29;20052;-82
2024/02/10 04:54:20;;;;;;;1.58;0.50;;;9.70;99.90;;;;;;4881685;29;20052;-82
2024/02/10 04:56:48;;;;;;;2.63;0.55;;;9.70;99.90;;;;;;4897154;29;20489;-82
2024/02/10 04:59:18;;;;;;;1.60;0.50;;;9.60;99.90;;;;;;4881800;29;20430;-77
2024/02/10 05:01:45;;;;;;;1.38;0.57;;;9.60;99.90;;;;;;4866468;29;20052;-77
2024/02/10 05:04:14;;;;;;;1.38;0.52;;;9.60;99.90;;;;;;4881162;29;20056;-77
2024/02/10 05:06:42;;;;;;;1.20;0.60;;;9.50;99.90;;;;;;4898071;29;20044;-77
2024/02/10 05:09:15;;;;;;;2.05;0.47;;;9.50;99.90;;;;;;4896874;29;20048;-77
2024/02/10 05:11:42;;;;;;;1.60;0.60;;;9.50;99.90;;;;;;4881717;29;20057;-77
2024/02/10 05:14:10;;;;;;;1.38;0.60;;;9.60;99.90;;;;;;4896742;29;20052;-77
2024/02/10 05:16:37;;;;;;;1.25;0.50;;;9.60;99.90;;;;;;4896561;29;20044;-77
2024/02/10 05:19:05;;;;;;;1.35;0.52;;;9.60;99.90;;;;;;4881179;29;20056;-77
2024/02/10 05:21:38;;;;;;;1.85;0.75;;;9.60;99.90;;;;;;4881388;29;20036;-77
2024/02/10 05:24:10;;;;;;;1.65;0.70;;;9.60;99.90;;;;;;4881839;29;20409;-77
2024/02/10 05:26:40;;;;;;;1.58;0.68;;;9.60;99.90;;;;;;4882053;29;20051;-77
2024/02/10 05:29:10;;;;;;;1.10;0.57;;;9.60;99.90;;;;;;4881249;29;20457;-77
2024/02/10 05:31:37;;;;;;;1.33;0.55;;;9.60;99.90;;;;;;4880598;29;20052;-77
2024/02/10 05:34:06;;;;;;;1.67;0.80;;;9.60;99.90;;;;;;4880720;29;20064;-77
2024/02/10 05:36:34;;;;;;;1.70;0.80;;;9.60;99.90;;;;;;4897750;29;20458;-77
2024/02/10 05:39:05;;;;;;;1.92;0.90;;;9.60;99.90;;;;;;4881084;29;20139;-77
2024/02/10 05:41:31;;;;;;;1.17;0.50;;;9.60;99.90;;;;;;4862633;29;20045;-77
2024/02/10 05:43:58;;;;;;;1.10;0.70;;;9.60;99.90;;;;;;4877830;29;20045;-77
2024/02/10 05:46:27;;;;;;;1.73;0.90;;;9.50;99.90;;;;;;4870937;29;20045;-77
2024/02/10 05:48:55;;;;;;;2.33;0.73;;;9.60;99.90;;;;;;4906482;29;20470;-77
2024/02/10 05:51:25;;;;;;;3.33;1.02;;;9.60;99.90;;;;;;4857725;29;20044;-77
2024/02/10 05:53:52;;;;;;;1.67;0.80;;;9.60;99.90;;;;;;4896402;29;20049;-77
2024/02/10 05:56:22;;;;;;;1.63;1.05;;;9.60;99.90;;;;;;4881374;29;20045;-77
2024/02/10 05:58:49;;;;;;;2.05;0.90;;;9.60;99.90;;;;;;4880495;29;20470;-77
2024/02/10 06:01:19;;;;;;;1.85;0.75;;;9.60;99.90;;;;;;4881024;29;20135;-77
2024/02/10 06:03:54;;;;;;;1.52;0.90;;;9.60;99.90;;;;;;4880907;29;20502;-77
2024/02/10 06:06:22;;;;;;;1.40;0.70;;;9.60;99.90;;;;;;4896111;29;20051;-77
2024/02/10 06:08:49;;;;;;;1.85;0.70;;;9.60;99.90;;;;;;4897502;29;20040;-77
2024/02/10 06:11:19;;;;;;;2.42;1.10;;;9.60;99.90;;;;;;4880810;29;20041;-77
2024/02/10 06:13:49;;;;;;;1.73;1.05;;;9.60;99.90;;;;;;4880758;29;20041;-77
2024/02/10 06:16:16;;;;;;;3.45;1.20;;;9.60;99.90;;;;;;4896792;29;20040;-77
2024/02/10 06:18:43;;;;;;;3.90;1.45;;;9.60;99.90;;;;;;4900943;29;20079;-77
2024/02/10 06:21:11;;;;;;;2.47;1.10;;;9.60;99.90;;;;;;4899547;29;20044;-77
2024/02/10 06:23:39;;;;;;;2.70;1.08;;;9.60;99.90;;;;;;4899657;29;20539;-77
2024/02/10 06:26:10;;;;;;;2.28;0.80;;;9.60;99.90;;;;;;4884284;29;20068;-77
2024/02/10 06:28:38;;;;;;;2.22;0.90;;;9.60;99.90;;;;;;4899550;29;20143;-77
2024/02/10 06:31:05;;;;;;;3.28;1.23;;;9.60;99.90;;;;;;4899729;29;20041;-77
2024/02/10 06:33:32;;;;;;;1.65;0.70;;;9.60;99.90;;;;;;4883946;29;20052;-77
2024/02/10 06:35:59;;;;;;;2.40;0.88;;;9.60;99.90;;;;;;4865366;29;20060;-77
2024/02/10 06:38:32;;;;;;;2.78;1.00;;;9.60;99.90;;;;;;4865519;29;20557;-77
2024/02/10 06:41:03;;;;;;;2.45;1.00;;;9.60;99.90;;;;;;4884724;29;20116;-76
2024/02/10 06:43:34;;;;;;;2.33;0.90;;;9.70;99.90;;;;;;4883849;29;20036;-77
2024/02/10 06:46:05;;;;;;;1.92;0.80;;;9.70;99.90;;;;;;4899186;29;20112;-77
2024/02/10 06:48:33;;;;;;;2.53;0.93;;;9.70;99.90;;;;;;4899540;29;20036;-77
2024/02/10 06:51:00;;;;;;;2.08;0.77;;;9.70;99.90;;;;;;4883565;29;20052;-77
2024/02/10 06:53:28;;;;;;;1.60;0.80;;;9.70;99.90;;;;;;4899319;29;20049;-77
2024/02/10 06:55:56;;;;;;;2.28;0.80;;;9.70;99.90;;;;;;4883856;29;20044;-77
2024/02/10 06:58:24;;;;;;;1.98;1.00;;;9.70;99.90;;;;;;4880338;29;20049;-77
2024/02/10 07:00:51;;;;;;;1.83;0.85;;;9.70;99.90;;;;;;4898468;29;20040;-77
2024/02/10 07:03:20;;;;;;;1.88;0.70;;;9.70;99.90;;;;;;4883597;29;20144;-77
2024/02/10 07:05:52;;;;;;;2.22;0.77;;;9.60;99.90;;;;;;4898964;29;20045;-77
2024/02/10 07:08:22;;;;;;;2.05;0.90;;;9.60;99.90;;;;;;4900408;29;20048;-77
2024/02/10 07:10:49;;;;;;;2.33;0.80;;;9.60;99.90;;;;;;4899081;29;20049;-77
2024/02/10 07:13:17;;;;;;;1.73;0.82;;;9.60;99.90;;;;;;4880143;29;20395;-77
2024/02/10 07:15:44;;;;;;;2.28;1.05;;;9.60;99.90;;;;;;4879345;29;20052;-77
2024/02/10 07:18:11;;;;;;;1.80;0.70;;;9.60;99.90;;;;;;4883242;29;20041;-77
2024/02/10 07:20:40;;;;;;;1.80;0.80;;;9.60;99.90;;;;;;4880395;29;20105;-77
2024/02/10 07:23:07;;;;;;;1.73;0.80;;;9.70;99.90;;;;;;4898535;29;20060;-77
2024/02/10 07:25:38;;;;;;;2.30;1.00;;;9.70;99.90;;;;;;4883078;29;20049;-77
2024/02/10 07:28:08;;;;;;;;;;;9.70;99.90;;;;;;4883244;29;20044;-77
2024/02/10 07:30:36;;;;;;;1.65;0.77;;;9.70;99.90;;;;;;4898387;29;19924;-77
2024/02/10 07:33:08;;;;;;;2.45;0.80;;;9.70;99.90;;;;;;4883234;29;20100;-77
2024/02/10 07:35:37;;;;;;;2.08;1.00;;;9.70;99.90;;;;;;4882918;29;20061;-77
2024/02/10 07:38:04;;;;;;;1.95;0.70;;;9.70;99.90;;;;;;4898156;29;20104;-77
2024/02/10 07:40:31;;;;;;;2.05;0.90;;;9.70;99.90;;;;;;4882851;29;20049;-77
2024/02/10 07:42:58;;;;;;;2.33;0.90;;;9.70;99.90;;;;;;4898294;29;20047;-77
2024/02/10 07:45:26;;;;;;;2.42;0.88;;;9.70;99.90;;;;;;4898077;29;20037;-77
2024/02/10 07:47:55;;;;;;;1.65;0.60;;;9.80;99.90;;;;;;4882846;29;20077;-77
2024/02/10 07:50:23;;;;;;;2.00;0.90;;;9.80;99.90;;;;;;4898158;29;20068;-76
2024/02/10 07:52:53;;;;;;;2.08;0.88;;;9.80;99.90;;;;;;4899192;29;20057;-77
2024/02/10 07:55:20;;;;;;;1.48;0.70;;;9.90;99.90;;;;;;4882946;29;20123;-82
2024/02/10 07:57:48;;;;;;;1.80;0.70;;;9.90;99.90;;;;;;4882698;29;20067;-83
2024/02/10 08:00:18;;;;;;;3.28;0.77;;;9.90;99.90;;;;;;4882546;29;20045;-83
2024/02/10 08:02:46;;;;;;;1.48;0.75;;;9.90;99.90;;;;;;4867396;29;20040;-83
2024/02/10 08:05:20;;;;;;;2.53;1.10;;;9.90;99.90;;;;;;4897826;29;20052;-83
2024/02/10 08:07:47;;;;;;;2.40;0.90;;;9.90;99.90;;;;;;4869296;29;20051;-83
2024/02/10 08:10:15;;;;;;;2.58;0.90;;;10.00;99.90;;;;;;4897879;29;20519;-83
2024/02/10 08:12:45;;;;;;;2.85;0.82;;;10.00;99.90;;;;;;4865132;29;20053;-82
2024/02/10 08:15:13;;;;;;;1.77;0.95;;;10.00;99.90;;;;;;4870960;29;20061;-83
2024/02/10 08:17:40;;;;;;;1.73;0.77;;;10.00;99.90;;;;;;4865728;29;20408;-83
2024/02/10 08:20:11;;;;;;;2.75;1.17;;;10.10;99.90;;;;;;4882107;29;20047;-83
2024/02/10 08:22:38;;;;;;;2.35;0.93;;;10.10;99.90;;;;;;4867288;29;20053;-82
2024/02/10 08:25:07;;;;;;;1.85;0.90;;;10.10;99.90;;;;;;4897836;29;20493;-83
2024/02/10 08:27:34;;;;;;;1.75;0.90;;;10.10;99.90;;;;;;4897567;29;20044;-83
2024/02/10 08:30:06;;;;;;;2.10;1.10;;;10.20;99.90;;;;;;4897559;29;20066;-83
2024/02/10 08:32:34;;;;;;;1.90;0.73;;;10.20;99.90;;;;;;4898603;29;20052;-83
2024/02/10 08:35:01;;;;;;;1.90;0.80;;;10.20;99.90;;;;;;4881755;29;20060;-83
2024/02/10 08:37:29;;;;;;;1.25;0.60;;;10.30;99.90;;;;;;4881858;29;20061;-83
2024/02/10 08:39:57;;;;;;;1.95;0.77;;;10.20;99.90;;;;;;4881268;29;20108;-77
2024/02/10 08:42:27;;;;;;;1.70;0.85;;;10.30;99.90;;;;;;4897089;29;20139;-77
2024/02/10 08:44:54;;;;;;;1.80;0.93;;;10.40;99.90;;;;;;4896953;29;20063;-77
2024/02/10 08:47:21;;;;;;;2.42;0.90;;;10.40;99.90;;;;;;4878389;29;20049;-77
2024/02/10 08:49:49;;;;;;;2.00;0.82;;;10.40;99.90;;;;;;4874455;29;20054;-77
2024/02/10 08:52:16;;;;;;;2.08;0.90;;;10.40;99.90;;;;;;4897109;29;20429;-77
2024/02/10 08:54:46;;;;;;;3.55;1.23;;;10.40;99.90;;;;;;4881831;29;20458;-84
2024/02/10 08:57:15;;;;;;;2.20;1.00;;;10.50;99.90;;;;;;4896672;29;20516;-83
2024/02/10 08:59:50;;;;;;;2.17;1.00;;;10.50;99.90;;;;;;4896900;29;20047;-82
2024/02/10 09:02:18;;;;;;;2.20;0.95;;;10.50;99.90;;;;;;4896863;29;20044;-83
2024/02/10 09:04:46;;;;;;;3.00;1.30;;;10.50;99.90;;;;;;4896980;29;20040;-81
2024/02/10 09:07:19;;;;;;;1.95;0.90;;;10.60;99.90;;;;;;4881319;29;20071;-81
2024/02/10 09:09:46;;;;;;;2.83;1.20;;;10.60;99.90;;;;;;4897207;29;20044;-81
2024/02/10 09:12:14;;;;;;;2.15;1.00;;;10.70;99.90;;;;;;4878980;29;20061;-81
2024/02/10 09:14:42;;;;;;;2.47;1.00;;;10.70;99.90;;;;;;4897045;29;20507;-82
2024/02/10 09:17:08;;;;;;;1.55;0.85;;;10.80;99.90;;;;;;4881238;29;20048;-81
2024/02/10 09:19:36;;;;;;;2.03;0.90;;;10.80;99.90;;;;;;4896575;29;20462;-81
2024/02/10 09:22:05;;;;;;;2.83;1.33;;;10.80;99.90;;;;;;4896821;29;20108;-84
2024/02/10 09:24:33;;;;;;;2.35;1.05;;;10.90;99.90;;;;;;4881698;29;20088;-81
2024/02/10 09:27:04;;;;;;;2.35;1.10;;;10.90;99.90;;;;;;4897791;29;20401;-76
2024/02/10 09:29:31;;;;;;;2.20;1.05;;;10.90;99.90;;;;;;4881338;29;20052;-76
2024/02/10 09:31:59;;;;;;;3.08;1.35;;;11.00;99.90;;;;;;4881165;29;20073;-76
2024/02/10 09:34:28;;;;;;;3.05;1.10;;;11.00;99.90;;;;;;4877814;29;20406;-77
2024/02/10 09:36:59;;;;;;;2.17;0.93;;;11.00;99.90;;;;;;4896659;29;20048;-76
2024/02/10 09:39:27;;;;;;;2.40;1.38;;;11.10;99.90;;;;;;4866069;29;20553;-76
2024/02/10 09:42:00;;;;;;;2.40;1.30;;;11.10;99.90;;;;;;4897674;29;20123;-76
2024/02/10 09:44:33;;;;;;;3.45;1.17;;;11.20;99.90;;;;;;4881861;29;20048;-77
2024/02/10 09:47:02;;;;;;;2.83;1.20;;;11.20;99.90;;;;;;4880897;29;20485;-76
2024/02/10 09:49:32;;;;;;;3.42;1.63;;;11.30;99.90;;;;;;4897533;29;20048;-82
2024/02/10 09:51:59;;;;;;;2.90;1.38;;;11.30;99.90;;;;;;4882788;29;20123;-81
2024/02/10 09:54:26;;;;;;;2.08;0.93;;;11.40;99.90;;;;;;4884739;29;20409;-81
2024/02/10 09:56:58;;;;;;;2.78;1.33;;;11.40;99.90;;;;;;4884732;29;20151;-85
2024/02/10 09:59:26;;;;;;;2.40;1.30;;;11.40;99.90;;;;;;4884852;29;20096;-80
2024/02/10 10:01:57;;;;;;;4.38;2.03;;;11.50;99.90;;;;;;4884817;29;20394;-80
2024/02/10 10:04:25;;;;;;;2.03;1.00;;;11.60;99.90;;;;;;4881359;29;20478;-81
2024/02/10 10:06:52;;;;;;;2.55;1.35;;;11.60;99.90;;;;;;4866061;29;20056;-81
2024/02/10 10:09:20;;;;;;;3.05;1.02;;;11.60;99.90;;;;;;4883788;29;20238;-80
2024/02/10 10:11:49;;;;;;;3.10;1.65;;;11.70;99.90;;;;;;4884779;29;20056;-81
2024/02/10 10:14:16;;;;;;;2.83;1.23;;;11.80;99.90;;;;;;4901002;29;20048;-81
2024/02/10 10:16:58;;;;;;;3.30;1.50;;;11.80;99.90;;;;;;4884695;29;20052;-80
2024/02/10 10:19:26;;;;;;;3.40;1.10;;;12.00;99.90;;;;;;4900883;29;20505;-81
2024/02/10 10:21:57;;;;;;;2.53;1.20;;;12.00;99.90;;;;;;4884369;29;20049;-81
2024/02/10 10:24:26;;;;;;;2.00;1.00;;;12.10;99.90;;;;;;4884463;29;20072;-83
2024/02/10 10:26:56;;;;;;;2.88;1.40;;;12.10;99.90;;;;;;4899511;29;20469;-81
2024/02/10 10:29:23;;;;;;;2.78;1.00;;;12.10;99.90;;;;;;4900644;29;20139;-81
2024/02/10 10:31:53;;;;;;;3.80;1.75;;;12.20;99.90;;;;;;4881419;29;20437;-81
2024/02/10 10:34:22;;;;;;;2.70;1.02;;;12.20;99.90;;;;;;4899052;29;20056;-81
2024/02/10 10:36:53;;;;;;;3.03;1.45;;;12.20;99.90;;;;;;4900349;29;20454;-81
2024/02/10 10:39:22;;;;;;;2.30;1.35;;;12.30;99.90;;;;;;4899049;29;20048;-81
2024/02/10 10:41:51;;;;;;;3.65;1.98;;;12.30;99.90;;;;;;4899566;29;20125;-82
2024/02/10 10:44:21;;;;;;;2.63;1.10;;;12.30;99.90;;;;;;4899393;29;20052;-81
2024/02/10 10:46:51;;;;;;;2.30;1.10;;;12.30;99.90;;;;;;4900419;29;20090;-88
2024/02/10 10:49:22;;;;;;;2.70;1.30;;;12.40;99.90;;;;;;4883468;29;20061;-85
2024/02/10 10:52:02;;;;;;;2.53;0.98;;;12.40;99.90;;;;;;4900703;29;20040;-90
2024/02/10 10:54:33;;;;;;;2.95;1.33;;;12.40;99.90;;;;;;4899655;29;20052;-81
2024/02/10 10:57:07;;;;;;;3.80;1.50;;;12.50;99.90;;;;;;4898888;29;20101;-82
2024/02/10 10:59:37;;;;;;;1.42;0.77;;;12.50;99.90;;;;;;4898785;29;20055;-82
2024/02/10 11:02:06;;;;;;;2.15;1.20;;;12.50;99.90;;;;;;4897945;29;20044;-84
2024/02/10 11:04:35;;;;;;;2.00;1.10;;;12.60;99.90;;;;;;4881216;29;20052;-89
2024/02/10 11:07:09;;;;;;;1.60;0.88;;;12.60;99.90;;;;;;4868147;29;20052;-90
2024/02/10 11:09:48;;;;;;;1.98;0.93;;;12.60;99.90;;;;;;4899935;29;20061;-89
2024/02/10 11:12:16;;;;;;;1.90;0.50;;;12.60;99.90;;;;;;4884762;29;20060;-89
2024/02/10 11:14:53;;;;;;;1.58;0.57;;;12.70;99.90;;;;;;4865770;29;20049;-89
2024/02/10 11:17:21;;;;;;;1.35;0.80;;;12.80;99.90;;;;;;4879811;29;20056;-89
2024/02/10 11:20:06;;;;;;;2.65;0.90;;;12.70;99.90;;;;;;4884602;29;20047;-88
2024/02/10 11:22:40;;;;;;;1.50;0.70;;;12.80;99.90;;;;;;4884537;29;20120;-88
2024/02/10 11:25:13;;;;;;;2.03;0.90;;;12.80;99.90;;;;;;4899612;29;20406;-88
2024/02/10 11:27:47;;;;;;;2.60;1.00;;;12.80;99.90;;;;;;4884653;29;20053;-88
2024/02/10 11:30:15;;;;;;;2.33;1.10;;;12.90;99.90;;;;;;4865574;29;20458;-89
2024/02/10 11:32:42;;;;;;;2.33;0.98;;;12.90;99.90;;;;;;4891697;29;20468;-85
2024/02/10 11:35:12;;;;;;;2.58;1.35;;;13.00;99.90;;;;;;4898477;29;20394;-82
2024/02/10 11:37:40;;;;;;;2.20;1.40;;;13.10;99.90;;;;;;4883351;29;20048;-89
2024/02/10 11:40:11;;;;;;;1.30;0.70;;;13.10;99.90;;;;;;4883653;29;20108;-83
2024/02/10 11:42:39;;;;;;;1.90;0.85;;;13.10;99.90;;;;;;4880193;29;20148;-83
2024/02/10 11:45:10;;;;;;;2.13;1.23;;;13.10;99.90;;;;;;4850405;29;20502;-81
2024/02/10 11:47:38;;;;;;;1.75;0.88;;;13.10;99.90;;;;;;4883302;29;20048;-81
2024/02/10 11:50:06;;;;;;;2.05;0.90;;;13.10;99.90;;;;;;4899292;29;20096;-82
2024/02/10 11:52:36;;;;;;;1.80;0.80;;;13.10;99.90;;;;;;4898092;29;20051;-82
2024/02/10 11:55:04;;;;;;;2.83;1.15;;;13.10;99.90;;;;;;4882598;29;20429;-77
2024/02/10 11:57:31;;;;;;;3.25;0.80;;;13.10;99.90;;;;;;4898047;29;20044;-76
2024/02/10 11:59:58;;;;;;;2.45;1.00;;;13.10;99.90;;;;;;4882552;29;20044;-77
2024/02/10 12:02:26;;;;;;;1.35;0.70;;;13.10;99.90;;;;;;4882583;29;20040;-79
2024/02/10 12:04:53;;;;;;;1.58;0.63;;;13.20;99.90;;;;;;4866183;29;20121;-77
2024/02/10 12:07:20;;;;;;;1.98;0.75;;;13.20;99.90;;;;;;4880822;29;20080;-86
2024/02/10 12:09:48;;;;;;;2.25;1.00;;;13.20;99.90;;;;;;4898537;29;20048;-84
2024/02/10 12:12:18;;;;;;;1.45;0.50;;;13.30;99.90;;;;;;4897771;29;20523;-83
2024/02/10 12:14:45;;;;;;;1.33;0.52;;;13.30;99.90;;;;;;4881974;29;20051;-90
2024/02/10 12:17:19;;;;;;;1.75;0.88;;;13.30;99.90;;;;;;4863791;29;20558;-84
2024/02/10 12:19:52;;;;;;;1.85;0.60;;;13.40;99.90;;;;;;4886557;29;20410;-84
2024/02/10 12:22:21;;;;;;;3.58;1.48;;;13.40;99.90;;;;;;4897507;29;20473;-84
2024/02/10 12:24:48;;;;;;;3.25;0.98;;;13.40;99.90;;;;;;4863961;29;20041;-83
2024/02/10 12:27:15;;;;;;;1.58;0.73;;;13.40;99.90;;;;;;4882386;29;20427;-83
2024/02/10 12:29:42;;;;;;;1.83;0.85;;;13.50;99.90;;;;;;4897381;29;20101;-84
2024/02/10 12:32:10;;;;;;;1.90;1.00;;;13.40;99.90;;;;;;4881989;29;20057;-84
2024/02/10 12:34:38;;;;;;;2.72;1.02;;;13.40;99.90;;;;;;4897403;29;20060;-83
2024/02/10 12:37:06;;;;;;;2.22;1.00;;;13.40;99.90;;;;;;4878977;29;20053;-83
2024/02/10 12:39:33;;;;;;;2.15;1.17;;;13.40;99.90;;;;;;4874282;29;20059;-83
2024/02/10 12:42:00;;;;;;;1.65;0.63;;;13.40;99.90;;;;;;4881907;29;20103;-82
2024/02/10 12:44:28;;;;;;;2.05;0.85;;;13.30;99.90;;;;;;4881962;29;20041;-82
2024/02/10 12:46:56;;;;;;;2.30;1.15;;;13.40;99.90;;;;;;4881796;29;20458;-84
2024/02/10 12:49:25;;;;;;;2.08;1.00;;;13.40;99.90;;;;;;4881748;29;20104;-83
2024/02/10 12:51:55;;;;;;;2.22;0.80;;;13.30;99.90;;;;;;4879898;29;20049;-83
2024/02/10 12:54:27;;;;;;;1.83;0.95;;;13.30;99.90;;;;;;4878726;29;20091;-79
2024/02/10 12:56:56;;;;;;;2.55;1.27;;;13.30;99.90;;;;;;4864797;29;20053;-77
2024/02/10 12:59:23;;;;;;;1.48;0.80;;;13.30;99.90;;;;;;4866548;29;20068;-84
2024/02/10 13:01:50;;;;;;;2.05;0.82;;;13.30;99.90;;;;;;4897112;29;20579;-83